createdAt,value
2024-02-19T00:02:05.886Z,75.72
2024-02-19T00:05:09.287Z,74.59
2024-02-19T00:08:11.723Z,73.92
2024-02-19T00:11:15.027Z,73.78
2024-02-19T00:14:17.221Z,73.18
2024-02-19T00:17:19.452Z,73.97
2024-02-19T00:20:21.764Z,74.23
2024-02-19T00:23:23.929Z,74.55
2024-02-19T00:26:26.091Z,75.23
2024-02-19T00:29:28.363Z,74.21
2024-02-19T00:32:30.779Z,74.16
2024-02-19T00:35:34.041Z,73.66
2024-02-19T00:38:36.300Z,73.79
2024-02-19T00:41:38.571Z,73.95
2024-02-19T00:44:40.773Z,73.64
2024-02-19T00:47:43.046Z,75.71
2024-02-19T00:50:45.781Z,76.31
2024-02-19T00:53:47.918Z,76.65
2024-02-19T00:56:50.049Z,76.64
2024-02-19T00:59:52.242Z,75.59
2024-02-19T01:02:54.779Z,74.67
2024-02-19T01:05:56.973Z,74.76
2024-02-19T01:08:59.202Z,74.58
2024-02-19T01:12:01.356Z,74.35
2024-02-19T01:15:04.551Z,75.18
2024-02-19T01:18:06.717Z,74.79
2024-02-19T01:21:08.876Z,75.46
2024-02-19T01:24:11.140Z,75.35
2024-02-19T01:27:13.266Z,74.66
2024-02-19T01:30:15.594Z,75.07
2024-02-19T01:33:17.754Z,76.65
2024-02-19T01:36:19.936Z,76.43
2024-02-19T01:39:22.894Z,76.21
2024-02-19T01:42:25.237Z,75.63
2024-02-19T01:45:27.675Z,74.54
2024-02-19T01:48:30.194Z,75.45
2024-02-19T01:51:36.771Z,75.49
2024-02-19T01:54:39.867Z,76.12
2024-02-19T01:57:43.654Z,75.23
2024-02-19T02:00:46.289Z,75.83
2024-02-19T02:03:48.822Z,76.32
2024-02-19T02:06:51.083Z,75.09
2024-02-19T02:09:53.825Z,75.73
2024-02-19T02:12:56.689Z,74.93
2024-02-19T02:15:58.895Z,74.48
2024-02-19T02:19:01.207Z,76.46
2024-02-19T02:22:03.738Z,77.12
2024-02-19T02:25:06.491Z,77.34
2024-02-19T02:28:08.863Z,75.47
2024-02-19T02:31:11.253Z,75.73
2024-02-19T02:34:14.005Z,77.60
2024-02-19T02:37:16.407Z,76.40
2024-02-19T02:40:18.737Z,74.30
2024-02-19T02:43:20.941Z,74.06
2024-02-19T02:46:23.163Z,74.02
2024-02-19T02:49:25.535Z,74.35
2024-02-19T02:52:28.043Z,74.85
2024-02-19T02:55:30.203Z,75.70
2024-02-19T02:58:34.510Z,75.18
2024-02-19T03:01:37.147Z,75.74
2024-02-19T03:04:39.618Z,75.37
2024-02-19T03:07:41.997Z,74.85
2024-02-19T03:10:44.534Z,74.83
2024-02-19T03:13:46.979Z,74.25
2024-02-19T03:16:49.228Z,75.16
2024-02-19T03:19:51.581Z,75.25
2024-02-19T03:22:54.379Z,74.82
2024-02-19T03:25:56.653Z,74.83
2024-02-19T03:28:58.868Z,74.83
2024-02-19T03:32:01.180Z,74.69
2024-02-19T03:35:04.710Z,74.59
2024-02-19T03:38:06.850Z,74.70
2024-02-19T03:41:09.394Z,74.86
2024-02-19T03:44:11.612Z,75.42
2024-02-19T03:47:13.843Z,74.91
2024-02-19T03:50:16.025Z,75.30
2024-02-19T03:53:18.473Z,75.04
2024-02-19T03:56:20.630Z,74.70
2024-02-19T03:59:23.858Z,74.91
2024-02-19T04:02:26.328Z,74.05
2024-02-19T04:05:28.572Z,73.64
2024-02-19T04:08:33.289Z,73.39
2024-02-19T04:11:36.060Z,74.50
2024-02-19T04:14:44.372Z,74.81
2024-02-19T04:17:51.124Z,75.36
2024-02-19T04:20:53.429Z,75.09
2024-02-19T04:23:56.687Z,74.91
2024-02-19T04:26:58.929Z,74.95
2024-02-19T04:30:01.112Z,74.98
2024-02-19T04:33:03.498Z,75.67
2024-02-19T04:36:08.158Z,75.96
2024-02-19T04:39:11.981Z,76.18
2024-02-19T04:42:14.443Z,75.66
2024-02-19T04:45:16.570Z,75.80
2024-02-19T04:48:18.718Z,75.58
2024-02-19T04:51:20.854Z,75.76
2024-02-19T04:54:23.081Z,75.00
2024-02-19T04:57:25.236Z,75.05
2024-02-19T05:00:27.409Z,74.51
2024-02-19T05:03:29.707Z,74.08
2024-02-19T05:06:31.998Z,73.78
2024-02-19T05:09:34.235Z,74.38
2024-02-19T05:12:36.656Z,74.94
2024-02-19T05:15:38.987Z,75.02
2024-02-19T05:18:41.211Z,74.63
2024-02-19T05:21:43.603Z,74.91
2024-02-19T05:24:48.120Z,75.04
2024-02-19T05:27:50.464Z,76.19
2024-02-19T05:30:53.824Z,75.68
2024-02-19T05:33:55.911Z,76.19
2024-02-19T05:36:58.067Z,75.31
2024-02-19T05:40:00.349Z,75.39
2024-02-19T05:43:02.611Z,75.51
2024-02-19T05:46:07.292Z,75.54
2024-02-19T05:49:11.473Z,75.52
2024-02-19T05:52:13.915Z,75.25
2024-02-19T05:55:16.202Z,75.38
2024-02-19T05:58:18.501Z,75.15
2024-02-19T06:01:23.274Z,75.65
2024-02-19T06:04:25.584Z,75.61
2024-02-19T06:07:27.880Z,75.86
2024-02-19T06:10:30.106Z,75.72
2024-02-19T06:13:32.434Z,75.16
2024-02-19T06:16:34.608Z,75.21
2024-02-19T06:19:40.220Z,74.36
2024-02-19T06:22:43.803Z,74.80
2024-02-19T06:25:46.058Z,74.81
2024-02-19T06:28:48.247Z,74.99
2024-02-19T06:31:53.254Z,74.92
2024-02-19T06:34:55.866Z,74.96
2024-02-19T06:37:58.186Z,74.20
2024-02-19T06:41:00.372Z,73.35
2024-02-19T06:44:02.650Z,73.24
2024-02-19T06:47:05.067Z,72.41
2024-02-19T06:50:07.794Z,73.11
2024-02-19T06:53:10.026Z,73.56
2024-02-19T06:56:13.518Z,72.99
2024-02-19T06:59:16.496Z,73.90
2024-02-19T07:02:18.793Z,73.14
2024-02-19T07:05:21.418Z,73.68
2024-02-19T07:08:26.632Z,73.27
2024-02-19T07:11:29.032Z,73.76
2024-02-19T07:14:31.210Z,73.52
2024-02-19T07:17:33.434Z,73.10
2024-02-19T07:20:35.692Z,73.03
2024-02-19T07:23:37.916Z,72.49
2024-02-19T07:26:40.122Z,72.55
2024-02-19T07:29:43.150Z,72.46
2024-02-19T07:32:45.529Z,73.11
2024-02-19T07:35:47.905Z,72.52
2024-02-19T07:38:50.069Z,71.61
2024-02-19T07:41:52.267Z,71.45
2024-02-19T07:44:54.478Z,71.71
2024-02-19T07:47:56.639Z,71.45
2024-02-19T07:50:58.867Z,71.75
2024-02-19T07:54:01.025Z,71.97
2024-02-19T07:57:03.266Z,71.87
2024-02-19T08:00:06.501Z,71.58
2024-02-19T08:03:09.238Z,70.56
2024-02-19T08:06:11.393Z,70.64
2024-02-19T08:09:13.563Z,70.73
2024-02-19T08:12:15.764Z,70.71
2024-02-19T08:15:17.957Z,70.05
2024-02-19T08:18:21.785Z,70.84
2024-02-19T08:21:24.427Z,70.06
2024-02-19T08:24:26.647Z,69.61
2024-02-19T08:27:28.905Z,69.83
2024-02-19T08:30:31.602Z,70.24
2024-02-19T08:33:33.749Z,70.80
2024-02-19T08:36:35.967Z,71.60
2024-02-19T08:39:39.689Z,72.01
2024-02-19T08:42:43.309Z,71.25
2024-02-19T08:45:45.593Z,71.25
2024-02-19T08:48:47.909Z,70.86
2024-02-19T08:51:50.222Z,70.88
2024-02-19T08:54:52.479Z,71.75
2024-02-19T08:57:54.750Z,73.01
2024-02-19T09:00:58.533Z,73.76
2024-02-19T09:04:01.069Z,74.17
2024-02-19T09:07:03.415Z,73.31
2024-02-19T09:10:06.445Z,75.62
2024-02-19T09:13:08.751Z,75.22
2024-02-19T09:16:11.100Z,76.00
2024-02-19T09:19:15.451Z,76.00
2024-02-19T09:22:18.198Z,76.43
2024-02-19T09:25:20.497Z,75.96
2024-02-19T09:28:23.202Z,76.89
2024-02-19T09:31:27.232Z,77.67
2024-02-19T09:34:30.011Z,77.50
2024-02-19T09:37:32.499Z,76.93
2024-02-19T09:40:37.198Z,77.69
2024-02-19T09:43:40.195Z,75.73
2024-02-19T09:46:43.064Z,74.49
2024-02-19T09:49:45.768Z,74.51
2024-02-19T09:52:48.232Z,75.10
2024-02-19T09:55:50.814Z,74.96
2024-02-19T09:58:53.543Z,73.85
2024-02-19T10:01:55.882Z,74.09
2024-02-19T10:05:00.331Z,73.92
2024-02-19T10:08:06.322Z,73.83
2024-02-19T10:11:12.046Z,73.91
2024-02-19T10:14:14.876Z,73.49
2024-02-19T10:17:30.080Z,74.12
2024-02-19T10:20:34.028Z,74.03
2024-02-19T10:23:36.218Z,74.30
2024-02-19T10:26:38.909Z,74.13
2024-02-19T10:29:41.116Z,73.37
2024-02-19T10:32:43.915Z,73.83
2024-02-19T10:35:48.232Z,74.19
2024-02-19T10:38:50.762Z,73.67
2024-02-19T10:41:53.045Z,73.41
2024-02-19T10:44:58.000Z,73.97
2024-02-19T10:48:00.495Z,73.83
2024-02-19T10:51:06.332Z,74.56
2024-02-19T10:54:08.574Z,75.20
2024-02-19T10:57:18.265Z,75.33
2024-02-19T11:00:27.589Z,75.30
2024-02-19T11:03:31.553Z,75.95
2024-02-19T11:06:35.315Z,75.69
2024-02-19T11:09:38.270Z,76.40
2024-02-19T11:12:41.387Z,75.28
2024-02-19T11:15:43.873Z,75.09
2024-02-19T11:18:46.453Z,76.14
2024-02-19T11:21:48.911Z,75.18
2024-02-19T11:24:52.153Z,76.06
2024-02-19T11:27:54.460Z,77.31
2024-02-19T11:31:03.785Z,76.71
2024-02-19T11:34:06.444Z,76.80
2024-02-19T11:37:09.937Z,76.78
2024-02-19T11:40:12.782Z,76.69
2024-02-19T11:43:16.712Z,77.41
2024-02-19T11:46:20.618Z,78.62
2024-02-19T11:49:23.921Z,79.02
2024-02-19T11:52:26.299Z,78.71
2024-02-19T11:55:32.228Z,79.02
2024-02-19T11:58:34.626Z,79.26
2024-02-19T12:01:38.290Z,79.60
2024-02-19T12:04:40.848Z,77.70
2024-02-19T12:07:43.755Z,77.92
2024-02-19T12:10:47.075Z,77.29
2024-02-19T12:13:49.276Z,78.54
2024-02-19T12:16:51.523Z,78.03
2024-02-19T12:19:57.059Z,79.34
2024-02-19T12:22:59.705Z,79.11
2024-02-19T12:26:02.019Z,78.37
2024-02-19T12:29:04.274Z,78.66
2024-02-19T12:32:06.585Z,79.24
2024-02-19T12:35:09.765Z,80.46
2024-02-19T12:38:12.525Z,80.58
2024-02-19T12:41:17.187Z,80.48
2024-02-19T12:44:19.955Z,80.17
2024-02-19T12:47:24.734Z,80.70
2024-02-19T12:50:29.122Z,80.99
2024-02-19T12:53:31.983Z,81.04
2024-02-19T12:56:34.191Z,80.91
2024-02-19T12:59:36.364Z,81.21
2024-02-19T13:02:38.701Z,81.74
2024-02-19T13:05:41.200Z,81.18
2024-02-19T13:08:45.359Z,81.82
2024-02-19T13:11:47.673Z,81.42
2024-02-19T13:14:49.884Z,81.57
2024-02-19T13:17:52.194Z,80.96
2024-02-19T13:20:57.680Z,81.37
2024-02-19T13:24:00.325Z,81.21
2024-02-19T13:27:02.529Z,81.85
2024-02-19T13:30:05.956Z,81.36
2024-02-19T13:33:08.479Z,80.21
2024-02-19T13:36:10.616Z,81.05
2024-02-19T13:39:13.634Z,81.13
2024-02-19T13:42:15.852Z,80.98
2024-02-19T13:45:24.635Z,81.63
2024-02-19T13:48:27.541Z,82.21
2024-02-19T13:51:30.235Z,82.77
2024-02-19T13:54:32.489Z,82.02
2024-02-19T13:57:34.728Z,81.83
2024-02-19T14:00:36.867Z,81.48
2024-02-19T14:03:39.094Z,81.73
2024-02-19T14:06:41.450Z,80.74
2024-02-19T14:09:43.882Z,79.52
2024-02-19T14:12:46.049Z,80.11
2024-02-19T14:15:48.318Z,79.41
2024-02-19T14:18:50.602Z,79.68
2024-02-19T14:21:54.170Z,78.85
2024-02-19T14:24:56.332Z,77.85
2024-02-19T14:28:00.678Z,77.94
2024-02-19T14:31:03.969Z,78.11
2024-02-19T14:34:07.995Z,78.78
2024-02-19T14:37:11.057Z,78.73
2024-02-19T14:40:18.816Z,79.64
2024-02-19T14:43:21.339Z,79.50
2024-02-19T14:46:23.753Z,78.85
2024-02-19T14:49:26.126Z,79.60
2024-02-19T14:52:28.648Z,79.77
2024-02-19T14:55:31.197Z,80.13
2024-02-19T14:58:33.998Z,80.44
2024-02-19T15:01:38.413Z,80.43
2024-02-19T15:04:41.815Z,79.74
2024-02-19T15:07:46.291Z,80.41
2024-02-19T15:10:48.832Z,80.61
2024-02-19T15:13:51.100Z,80.53
2024-02-19T15:16:53.437Z,80.34
2024-02-19T15:19:56.456Z,79.45
2024-02-19T15:22:58.686Z,80.44
2024-02-19T15:26:02.552Z,81.58
2024-02-19T15:29:05.500Z,81.58
2024-02-19T15:32:08.889Z,82.70
2024-02-19T15:35:11.377Z,83.59
2024-02-19T15:38:14.171Z,83.10
2024-02-19T15:41:21.106Z,83.84
2024-02-19T15:44:23.392Z,84.71
2024-02-19T15:47:26.625Z,85.55
2024-02-19T15:50:29.072Z,86.08
2024-02-19T15:53:31.220Z,87.28
2024-02-19T15:56:33.407Z,87.07
2024-02-19T15:59:36.217Z,86.69
2024-02-19T16:02:41.429Z,87.12
2024-02-19T16:05:44.592Z,87.47
2024-02-19T16:08:46.749Z,87.38
2024-02-19T16:11:51.102Z,87.65
2024-02-19T16:14:53.247Z,87.61
2024-02-19T16:17:55.474Z,87.03
2024-02-19T16:20:57.717Z,86.67
2024-02-19T16:23:59.934Z,87.43
2024-02-19T16:27:05.351Z,88.17
2024-02-19T16:30:10.339Z,87.85
2024-02-19T16:33:13.534Z,88.11
2024-02-19T16:36:16.124Z,88.61
2024-02-19T16:39:18.294Z,89.18
2024-02-19T16:42:20.563Z,89.46
2024-02-19T16:45:26.832Z,90.10
2024-02-19T16:48:29.447Z,90.00
2024-02-19T16:51:31.763Z,89.64
2024-02-19T16:54:33.974Z,90.27
2024-02-19T16:57:36.279Z,90.46
2024-02-19T17:00:38.520Z,90.42
2024-02-19T17:03:40.936Z,90.96
2024-02-19T17:06:45.181Z,90.74
2024-02-19T17:09:47.606Z,90.62
2024-02-19T17:12:49.876Z,90.78
2024-02-19T17:15:52.144Z,90.59
2024-02-19T17:18:54.334Z,90.61
2024-02-19T17:21:56.707Z,90.24
2024-02-19T17:24:59.005Z,90.44
2024-02-19T17:28:01.294Z,90.95
2024-02-19T17:31:04.620Z,90.37
2024-02-19T17:34:07.058Z,90.63
2024-02-19T17:37:10.220Z,91.47
2024-02-19T17:40:12.865Z,91.37
2024-02-19T17:43:15.726Z,91.66
2024-02-19T17:46:18.130Z,91.82
2024-02-19T17:49:20.481Z,91.39
2024-02-19T17:52:22.821Z,91.89
2024-02-19T17:55:25.179Z,91.42
2024-02-19T18:01:52.111Z,90.80
2024-02-19T18:04:57.509Z,90.77
2024-02-19T18:07:59.784Z,91.03
2024-02-19T18:11:02.632Z,91.73
2024-02-19T18:14:04.806Z,91.93
2024-02-19T18:17:06.972Z,91.77
2024-02-19T18:20:11.034Z,90.85
2024-02-19T18:23:13.539Z,91.00
2024-02-19T18:26:15.693Z,91.57
2024-02-19T18:29:18.303Z,91.62
2024-02-19T18:32:20.822Z,91.96
2024-02-19T18:35:23.117Z,91.57
2024-02-19T18:38:25.485Z,91.84
2024-02-19T18:41:28.841Z,91.48
2024-02-19T18:44:31.182Z,91.85
2024-02-19T18:47:33.306Z,92.07
2024-02-19T18:50:35.831Z,91.87
2024-02-19T18:53:38.548Z,92.62
2024-02-19T18:56:40.757Z,93.13
2024-02-19T18:59:42.983Z,92.46
2024-02-19T19:02:45.715Z,92.14
2024-02-19T19:05:48.301Z,92.31
2024-02-19T19:08:50.515Z,92.62
2024-02-19T19:11:52.869Z,91.79
2024-02-19T19:14:55.047Z,92.39
2024-02-19T19:17:57.229Z,91.64
2024-02-19T19:20:59.384Z,91.79
2024-02-19T19:24:01.837Z,91.02
2024-02-19T19:27:05.702Z,91.72
2024-02-19T19:30:08.676Z,91.80
2024-02-19T19:33:11.939Z,91.72
2024-02-19T19:36:14.745Z,92.11
2024-02-19T19:39:17.326Z,92.65
2024-02-19T19:42:21.359Z,92.45
2024-02-19T19:45:24.358Z,92.69
2024-02-19T19:48:29.001Z,92.45
2024-02-19T19:51:31.615Z,92.26
2024-02-19T19:54:33.832Z,92.15
2024-02-19T19:57:36.079Z,92.16
2024-02-19T20:00:38.290Z,92.22
2024-02-19T20:03:40.515Z,92.82
2024-02-19T20:06:42.743Z,93.06
2024-02-19T20:09:47.202Z,92.76
2024-02-19T20:12:50.871Z,93.02
2024-02-19T20:15:53.233Z,92.69
2024-02-19T20:18:56.982Z,93.53
2024-02-19T20:21:59.445Z,93.82
2024-02-19T20:25:01.728Z,93.51
2024-02-19T20:28:05.663Z,93.17
2024-02-19T20:31:08.054Z,93.43
2024-02-19T20:34:12.558Z,93.05
2024-02-19T20:37:16.101Z,93.00
2024-02-19T20:40:19.651Z,92.44
2024-02-19T20:43:22.060Z,92.28
2024-02-19T20:46:24.591Z,92.17
2024-02-19T20:49:26.853Z,92.18
2024-02-19T20:52:29.959Z,92.34
2024-02-19T20:55:32.225Z,91.60
2024-02-19T20:58:34.910Z,91.48
2024-02-19T21:01:37.318Z,90.84
2024-02-19T21:04:39.733Z,90.42
2024-02-19T21:07:44.946Z,90.00
2024-02-19T21:10:49.239Z,90.14
2024-02-19T21:13:51.456Z,89.79
2024-02-19T21:16:53.669Z,89.25
2024-02-19T21:19:59.523Z,89.77
2024-02-19T21:23:02.140Z,89.08
2024-02-19T21:26:04.567Z,88.64
2024-02-19T21:29:06.717Z,89.44
2024-02-19T21:32:08.990Z,89.43
2024-02-19T21:35:14.134Z,89.07
2024-02-19T21:38:16.433Z,89.57
2024-02-19T21:41:18.928Z,90.18
2024-02-19T21:44:22.966Z,89.87
2024-02-19T21:47:25.276Z,88.29
2024-02-19T21:50:31.268Z,87.46
2024-02-19T21:53:33.517Z,87.04
2024-02-19T21:56:36.054Z,87.00
2024-02-19T21:59:38.573Z,86.62
2024-02-19T22:02:40.899Z,86.29
2024-02-19T22:05:43.091Z,86.38
2024-02-19T22:08:45.231Z,86.57
2024-02-19T22:11:47.667Z,86.69
2024-02-19T22:14:49.857Z,86.60
2024-02-19T22:17:52.200Z,85.96
2024-02-19T22:20:54.555Z,85.98
2024-02-19T22:23:56.841Z,86.01
2024-02-19T22:26:59.260Z,85.40
2024-02-19T22:30:01.863Z,84.79
2024-02-19T22:33:04.248Z,84.14
2024-02-19T22:36:06.569Z,83.65
2024-02-19T22:39:10.916Z,83.88
2024-02-19T22:42:13.398Z,84.51
2024-02-19T22:45:15.602Z,84.54
2024-02-19T22:48:17.874Z,84.15
2024-02-19T22:51:20.237Z,84.64
2024-02-19T22:54:22.483Z,84.68
2024-02-19T22:57:24.655Z,84.87
2024-02-19T23:00:26.826Z,85.16
2024-02-19T23:03:29.322Z,84.95
2024-02-19T23:06:31.868Z,85.03
2024-02-19T23:09:34.181Z,85.31
2024-02-19T23:12:36.327Z,85.48
2024-02-19T23:15:38.445Z,85.59
2024-02-19T23:18:40.653Z,85.77
2024-02-19T23:21:42.899Z,85.65
2024-02-19T23:24:45.085Z,86.03
2024-02-19T23:27:47.200Z,86.21
2024-02-19T23:30:49.367Z,85.89
2024-02-19T23:33:51.994Z,85.86
2024-02-19T23:36:55.655Z,85.82
2024-02-19T23:39:59.478Z,85.38
2024-02-19T23:43:01.796Z,85.53
2024-02-19T23:46:04.094Z,86.07
2024-02-19T23:49:07.961Z,85.38
2024-02-19T23:52:10.568Z,84.64
2024-02-19T23:55:15.703Z,83.87
2024-02-19T23:58:17.960Z,82.89
